createdAt,value
2023-01-28T00:01:29.872Z,99720.64
2023-01-28T00:04:03.151Z,99719.36
2023-01-28T00:06:36.678Z,99712.80
2023-01-28T00:09:10.335Z,99718.72
2023-01-28T00:11:43.619Z,99714.38
2023-01-28T00:14:17.456Z,99714.89
2023-01-28T00:16:51.092Z,99708.59
2023-01-28T00:19:24.492Z,99708.69
2023-01-28T00:21:57.940Z,99707.03
2023-01-28T00:24:31.381Z,99712.73
2023-01-28T00:27:05.003Z,99711.86
2023-01-28T00:29:38.801Z,99710.29
2023-01-28T00:32:12.144Z,99714.33
2023-01-28T00:34:45.337Z,99711.86
2023-01-28T00:37:18.662Z,99716.98
2023-01-28T00:39:54.260Z,99721.80
2023-01-28T00:42:29.292Z,99713.25
2023-01-28T00:45:02.633Z,99719.97
2023-01-28T00:47:36.010Z,99712.86
2023-01-28T00:50:11.204Z,99721.72
2023-01-28T00:52:44.662Z,99716.89
2023-01-28T00:55:18.558Z,99722.11
2023-01-28T00:57:52.127Z,99721.50
2023-01-28T01:00:27.333Z,99724.84
2023-01-28T01:03:00.802Z,99727.41
2023-01-28T01:05:34.586Z,99727.05
2023-01-28T01:08:08.319Z,99723.67
2023-01-28T01:10:42.975Z,99722.19
2023-01-28T01:13:16.425Z,99730.78
2023-01-28T01:15:49.865Z,99722.80
2023-01-28T01:18:23.270Z,99727.05
2023-01-28T01:20:59.088Z,99729.48
2023-01-28T01:23:33.542Z,99729.80
2023-01-28T01:26:08.155Z,99732.44
2023-01-28T01:28:42.126Z,99724.76
2023-01-28T01:31:17.728Z,99725.66
2023-01-28T01:33:53.318Z,99725.84
2023-01-28T01:36:27.058Z,99732.53
2023-01-28T01:39:00.547Z,99721.41
2023-01-28T01:41:35.020Z,99731.48
2023-01-28T01:44:27.421Z,99729.01
2023-01-28T01:47:01.483Z,99730.66
2023-01-28T01:49:34.951Z,99725.45
2023-01-28T01:52:11.806Z,99727.23
2023-01-28T01:54:47.533Z,99722.11
2023-01-28T01:57:23.977Z,99721.02
2023-01-28T02:00:00.942Z,99724.97
2023-01-28T02:02:37.373Z,99726.66
2023-01-28T02:05:14.877Z,99731.18
2023-01-28T02:07:48.369Z,99726.66
2023-01-28T02:10:23.632Z,99728.53
2023-01-28T02:13:00.667Z,99729.05
2023-01-28T02:15:35.883Z,99722.92
2023-01-28T02:18:09.508Z,99734.56
2023-01-28T02:20:49.700Z,99733.77
2023-01-28T02:23:35.619Z,99734.73
2023-01-28T02:26:50.099Z,99733.77
2023-01-28T02:29:27.585Z,99739.86
2023-01-28T02:32:04.027Z,99741.16
2023-01-28T02:34:43.090Z,99734.16
2023-01-28T02:37:19.597Z,99735.36
2023-01-28T02:39:56.196Z,99737.34
2023-01-28T02:42:32.453Z,99735.66
2023-01-28T02:45:08.225Z,99745.42
2023-01-28T02:47:59.916Z,99748.95
2023-01-28T02:50:38.677Z,99749.73
2023-01-28T02:53:34.712Z,99757.41
2023-01-28T02:56:14.261Z,99752.69
2023-01-28T02:58:51.308Z,99752.87
2023-01-28T03:01:28.485Z,99767.88
2023-01-28T03:04:04.393Z,99763.22
2023-01-28T03:06:40.372Z,99764.59
2023-01-28T03:09:26.755Z,99755.95
2023-01-28T03:12:20.380Z,99766.10
2023-01-28T03:15:14.428Z,99776.12
2023-01-28T03:18:08.573Z,99771.78
2023-01-28T03:21:02.830Z,99777.59
2023-01-28T03:23:57.916Z,99775.72
2023-01-28T03:26:51.730Z,99760.17
2023-01-28T03:29:45.194Z,99762.41
2023-01-28T03:32:38.465Z,99759.77
2023-01-28T03:35:32.488Z,99765.69
2023-01-28T03:38:11.170Z,99762.73
2023-01-28T03:40:53.478Z,99770.18
2023-01-28T03:43:27.524Z,99768.62
2023-01-28T03:46:01.168Z,99774.74
2023-01-28T03:48:35.282Z,99767.25
2023-01-28T03:51:10.326Z,99771.50
2023-01-28T03:53:44.022Z,99773.25
2023-01-28T03:56:18.704Z,99766.56
2023-01-28T03:58:55.386Z,99767.44
2023-01-28T04:01:29.458Z,99769.41
2023-01-28T04:04:03.251Z,99769.53
2023-01-28T04:06:36.765Z,99764.51
2023-01-28T04:09:14.854Z,99769.41
2023-01-28T04:11:58.923Z,99771.78
2023-01-28T04:14:36.810Z,99773.93
2023-01-28T04:17:12.073Z,99772.05
2023-01-28T04:19:45.623Z,99773.33
2023-01-28T04:22:19.122Z,99776.84
2023-01-28T04:24:52.940Z,99766.23
2023-01-28T04:27:27.118Z,99779.96
2023-01-28T04:30:00.746Z,99773.84
2023-01-28T04:32:44.982Z,99770.73
2023-01-28T04:35:36.140Z,99777.05
2023-01-28T04:38:14.148Z,99775.45
2023-01-28T04:43:39.492Z,99768.99
2023-01-28T04:49:09.314Z,99762.50
2023-01-28T04:51:53.597Z,99776.38
2023-01-28T04:54:31.571Z,99772.36
2023-01-28T04:57:06.663Z,99776.06
2023-01-28T04:59:41.224Z,99783.23
2023-01-28T05:02:15.097Z,99788.15
2023-01-28T05:04:50.306Z,99781.73
2023-01-28T05:07:31.042Z,99794.95
2023-01-28T05:10:05.238Z,99797.51
2023-01-28T05:12:39.113Z,99790.61
2023-01-28T05:15:14.594Z,99795.72
2023-01-28T05:17:48.959Z,99803.30
2023-01-28T05:20:24.200Z,99800.16
2023-01-28T05:22:59.317Z,99792.16
2023-01-28T05:25:34.416Z,99795.30
2023-01-28T05:28:09.394Z,99792.65
2023-01-28T05:30:42.931Z,99795.63
2023-01-28T05:33:16.390Z,99791.70
2023-01-28T05:35:50.214Z,99792.39
2023-01-28T05:38:27.308Z,99796.70
2023-01-28T05:41:01.047Z,99796.34
2023-01-28T05:43:34.725Z,99801.88
2023-01-28T05:46:09.901Z,99801.88
2023-01-28T05:49:00.182Z,99799.41
2023-01-28T05:54:33.512Z,99803.06
2023-01-28T05:57:09.500Z,99817.58
2023-01-28T05:59:43.015Z,99812.47
2023-01-28T06:02:16.517Z,99821.72
2023-01-28T06:04:50.084Z,99818.06
2023-01-28T06:07:24.228Z,99817.48
2023-01-28T06:09:57.746Z,99811.78
2023-01-28T06:12:31.335Z,99801.88
2023-01-28T06:15:24.576Z,99807.18
2023-01-28T06:20:57.917Z,99803.67
2023-01-28T06:23:31.631Z,99804.63
2023-01-28T06:26:05.259Z,99810.74
2023-01-28T06:28:40.280Z,99814.95
2023-01-28T06:31:14.119Z,99821.36
2023-01-28T06:33:47.747Z,99818.25
2023-01-28T06:36:21.296Z,99811.34
2023-01-28T06:38:54.803Z,99818.25
2023-01-28T06:41:28.546Z,99817.34
2023-01-28T06:44:02.305Z,99832.59
2023-01-28T06:46:35.746Z,99833.47
2023-01-28T06:49:09.386Z,99831.59
2023-01-28T06:51:42.777Z,99840.47
2023-01-28T06:54:16.117Z,99832.42
2023-01-28T06:56:49.547Z,99833.52
2023-01-28T06:59:22.958Z,99823.74
2023-01-28T07:01:56.719Z,99833.60
2023-01-28T07:04:29.901Z,99834.73
2023-01-28T07:07:03.321Z,99838.30
2023-01-28T07:09:37.339Z,99833.70
2023-01-28T07:12:11.130Z,99826.98
2023-01-28T07:14:44.516Z,99823.74
2023-01-28T07:17:18.287Z,99824.84
2023-01-28T07:19:51.765Z,99823.97
2023-01-28T07:22:25.294Z,99824.66
2023-01-28T07:25:01.428Z,99824.66
2023-01-28T07:27:34.930Z,99828.50
2023-01-28T07:30:10.720Z,99825.86
2023-01-28T07:32:44.215Z,99820.45
2023-01-28T07:35:18.227Z,99809.53
2023-01-28T07:37:55.428Z,99821.05
2023-01-28T07:40:30.165Z,99827.05
2023-01-28T07:43:03.750Z,99833.76
2023-01-28T07:45:39.150Z,99830.98
2023-01-28T07:48:14.834Z,99831.58
2023-01-28T07:50:49.732Z,99830.29
2023-01-28T07:53:23.259Z,99835.41
2023-01-28T07:56:01.430Z,99835.00
2023-01-28T07:58:35.654Z,99835.73
2023-01-28T08:01:09.660Z,99831.57
2023-01-28T08:03:43.109Z,99830.69
2023-01-28T08:06:16.557Z,99831.09
2023-01-28T08:08:51.110Z,99819.64
2023-01-28T08:11:24.519Z,99818.47
2023-01-28T08:13:58.191Z,99822.22
2023-01-28T08:16:31.835Z,99823.30
2023-01-28T08:19:05.410Z,99830.29
2023-01-28T08:21:38.537Z,99826.15
2023-01-28T08:24:12.383Z,99824.41
2023-01-28T08:26:46.444Z,99826.36
2023-01-28T08:29:19.984Z,99825.08
2023-01-28T08:31:53.409Z,99826.64
2023-01-28T08:34:26.900Z,99818.05
2023-01-28T08:37:00.649Z,99816.66
2023-01-28T08:39:34.150Z,99814.49
2023-01-28T08:42:08.654Z,99818.45
2023-01-28T08:44:41.789Z,99813.23
2023-01-28T08:47:15.563Z,99815.01
2023-01-28T08:49:49.173Z,99807.10
2023-01-28T08:52:22.587Z,99809.45
2023-01-28T08:54:56.054Z,99804.97
2023-01-28T08:57:29.445Z,99802.48
2023-01-28T09:00:02.895Z,99810.70
2023-01-28T09:02:36.146Z,99807.45
2023-01-28T09:05:11.662Z,99807.79
2023-01-28T09:07:45.132Z,99805.44
2023-01-28T09:10:20.701Z,99805.75
2023-01-28T09:12:54.310Z,99800.94
2023-01-28T09:15:27.759Z,99801.28
2023-01-28T09:18:01.384Z,99795.34
2023-01-28T09:20:34.925Z,99798.98
2023-01-28T09:23:09.092Z,99798.98
2023-01-28T09:25:43.000Z,99801.07
2023-01-28T09:28:16.248Z,99803.24
2023-01-28T09:30:49.822Z,99800.68
2023-01-28T09:33:23.677Z,99799.30
2023-01-28T09:35:57.251Z,99790.13
2023-01-28T09:38:32.168Z,99794.84
2023-01-28T09:41:12.493Z,99793.54
2023-01-28T09:43:54.661Z,99793.92
2023-01-28T09:46:31.180Z,99788.59
2023-01-28T09:49:07.372Z,99788.97
2023-01-28T09:51:43.960Z,99783.44
2023-01-28T09:54:23.481Z,99779.11
2023-01-28T09:57:01.951Z,99783.53
2023-01-28T09:59:37.273Z,99769.84
2023-01-28T10:02:33.901Z,99771.24
2023-01-28T10:05:12.702Z,99783.36
2023-01-28T10:07:49.248Z,99780.63
2023-01-28T10:10:27.415Z,99774.51
2023-01-28T10:16:28.317Z,99779.09
2023-01-28T10:19:05.475Z,99775.16
2023-01-28T10:21:41.972Z,99772.18
2023-01-28T10:24:20.031Z,99766.44
2023-01-28T10:26:53.460Z,99767.52
2023-01-28T10:29:30.201Z,99761.75
2023-01-28T10:32:06.809Z,99759.68
2023-01-28T10:34:40.466Z,99753.53
2023-01-28T10:37:16.361Z,99752.50
2023-01-28T10:39:50.078Z,99746.99
2023-01-28T10:42:27.966Z,99741.47
2023-01-28T10:45:04.734Z,99740.54
2023-01-28T10:47:40.231Z,99741.27
2023-01-28T10:50:17.161Z,99737.51
2023-01-28T10:52:59.676Z,99740.86
2023-01-28T10:55:35.116Z,99742.80
2023-01-28T10:58:15.275Z,99726.02
2023-01-28T11:00:50.526Z,99726.56
2023-01-28T11:03:26.462Z,99728.87
2023-01-28T11:06:00.719Z,99731.52
2023-01-28T11:08:35.697Z,99730.11
2023-01-28T11:11:12.197Z,99729.91
2023-01-28T11:13:55.837Z,99730.98
2023-01-28T11:16:29.337Z,99732.92
2023-01-28T11:19:06.420Z,99728.25
2023-01-28T11:21:40.806Z,99725.31
2023-01-28T11:24:20.156Z,99718.78
2023-01-28T11:26:56.832Z,99724.78
2023-01-28T11:29:32.786Z,99716.46
2023-01-28T11:32:07.399Z,99710.70
2023-01-28T11:34:43.607Z,99715.52
2023-01-28T11:37:18.770Z,99707.36
2023-01-28T11:39:53.821Z,99705.11
2023-01-28T11:42:27.339Z,99708.78
2023-01-28T11:45:01.040Z,99702.00
2023-01-28T11:47:48.029Z,99700.30
2023-01-28T11:50:31.729Z,99689.97
2023-01-28T11:53:17.068Z,99684.06
2023-01-28T11:56:01.656Z,99680.80
2023-01-28T11:58:39.507Z,99690.52
2023-01-28T12:01:18.119Z,99683.30
2023-01-28T12:04:07.297Z,99685.34
2023-01-28T12:07:01.211Z,99687.41
2023-01-28T12:09:39.685Z,99685.10
2023-01-28T12:12:24.057Z,99683.36
2023-01-28T12:15:07.157Z,99679.02
2023-01-28T12:17:46.693Z,99687.58
2023-01-28T12:20:25.868Z,99679.10
2023-01-28T12:23:40.530Z,99676.52
2023-01-28T12:26:17.307Z,99680.48
2023-01-28T12:29:03.572Z,99673.11
2023-01-28T12:31:43.702Z,99670.72
2023-01-28T12:37:49.854Z,99653.45
2023-01-28T12:40:49.652Z,99652.60
2023-01-28T12:43:26.993Z,99654.88
2023-01-28T12:46:05.201Z,99646.72
2023-01-28T12:51:28.790Z,99652.27
2023-01-28T12:54:06.073Z,99646.77
2023-01-28T12:56:43.777Z,99644.48
2023-01-28T12:59:18.371Z,99641.80
2023-01-28T13:01:55.207Z,99635.64
2023-01-28T13:04:35.389Z,99638.70
2023-01-28T13:07:12.656Z,99641.64
2023-01-28T13:09:51.290Z,99644.78
2023-01-28T13:12:25.946Z,99641.97
2023-01-28T13:18:02.068Z,99639.41
2023-01-28T13:23:42.206Z,99631.52
2023-01-28T13:26:34.039Z,99645.15
2023-01-28T13:32:03.720Z,99638.66
2023-01-28T13:38:13.914Z,99640.30
2023-01-28T13:40:49.760Z,99640.13
2023-01-28T13:43:32.187Z,99631.56
2023-01-28T13:46:06.876Z,99634.83
2023-01-28T13:51:30.030Z,99632.88
2023-01-28T13:54:06.890Z,99629.72
2023-01-28T13:56:43.147Z,99626.47
2023-01-28T13:59:31.704Z,99633.36
2023-01-28T14:02:39.691Z,99627.28
2023-01-28T14:05:49.560Z,99621.34
2023-01-28T14:08:51.810Z,99618.70
2023-01-28T14:11:59.154Z,99610.23
2023-01-28T14:14:36.043Z,99610.40
2023-01-28T14:17:13.513Z,99608.05
2023-01-28T14:19:46.525Z,99611.80
2023-01-28T14:22:22.251Z,99607.58
2023-01-28T14:24:55.871Z,99608.97
2023-01-28T14:27:32.738Z,99610.55
2023-01-28T14:30:11.394Z,99606.12
2023-01-28T14:32:50.554Z,99609.29
2023-01-28T14:35:26.808Z,99608.99
2023-01-28T14:38:02.018Z,99605.56
2023-01-28T14:40:38.768Z,99604.86
2023-01-28T14:43:16.941Z,99597.27
2023-01-28T14:46:04.079Z,99597.97
2023-01-28T14:48:40.212Z,99590.37
2023-01-28T14:51:30.299Z,99590.58
2023-01-28T14:54:26.337Z,99589.87
2023-01-28T15:02:33.092Z,99590.90
2023-01-28T15:05:16.871Z,99597.95
2023-01-28T15:07:50.973Z,99594.86
2023-01-28T15:10:29.363Z,99596.28
2023-01-28T15:13:07.263Z,99595.78
2023-01-28T15:15:43.563Z,99601.41
2023-01-28T15:18:22.291Z,99594.69
2023-01-28T15:20:56.874Z,99585.23
2023-01-28T15:23:32.818Z,99586.39
2023-01-28T15:26:09.453Z,99584.70
2023-01-28T15:28:44.070Z,99580.48
2023-01-28T15:31:24.667Z,99586.39
2023-01-28T15:34:02.999Z,99576.55
2023-01-28T15:36:36.779Z,99587.03
2023-01-28T15:39:16.310Z,99576.61
2023-01-28T15:41:52.474Z,99569.02
2023-01-28T15:47:17.770Z,99569.25
2023-01-28T15:49:53.028Z,99567.81
2023-01-28T15:52:32.952Z,99564.77
2023-01-28T15:55:08.854Z,99562.50
2023-01-28T15:57:44.498Z,99557.08
2023-01-28T16:00:21.320Z,99556.73
2023-01-28T16:02:58.384Z,99556.12
2023-01-28T16:05:37.495Z,99552.17
2023-01-28T16:08:14.151Z,99557.46
2023-01-28T16:13:37.024Z,99536.41
2023-01-28T16:18:56.450Z,99542.31
2023-01-28T16:21:34.750Z,99542.47
2023-01-28T16:24:22.071Z,99537.18
2023-01-28T16:27:03.256Z,99551.03
2023-01-28T16:29:37.663Z,99542.64
2023-01-28T16:32:33.406Z,99535.87
2023-01-28T16:35:09.735Z,99530.04
2023-01-28T16:37:43.028Z,99529.34
2023-01-28T16:40:19.562Z,99509.88
2023-01-28T16:42:54.908Z,99531.20
2023-01-28T16:45:28.425Z,99528.72
2023-01-28T16:48:01.898Z,99532.16
2023-01-28T16:50:36.290Z,99534.80
2023-01-28T16:53:16.171Z,99531.66
2023-01-28T16:58:33.761Z,99521.23
2023-01-28T17:01:08.001Z,99521.03
2023-01-28T17:03:42.632Z,99525.28
2023-01-28T17:06:19.075Z,99527.23
2023-01-28T17:08:54.591Z,99519.55
2023-01-28T17:11:32.436Z,99511.75
2023-01-28T17:16:47.521Z,99519.55
2023-01-28T17:19:22.079Z,99518.14
2023-01-28T17:21:55.243Z,99517.44
2023-01-28T17:24:30.796Z,99513.09
2023-01-28T17:27:05.985Z,99510.25
2023-01-28T17:29:39.543Z,99510.70
2023-01-28T17:32:15.309Z,99509.92
2023-01-28T17:34:50.000Z,99504.80
2023-01-28T17:37:23.124Z,99506.37
2023-01-28T17:39:58.457Z,99497.36
2023-01-28T17:42:31.698Z,99496.00
2023-01-28T17:48:12.645Z,99497.78
2023-01-28T17:50:45.932Z,99504.59
2023-01-28T17:53:19.199Z,99496.99
2023-01-28T17:55:52.454Z,99499.92
2023-01-28T17:58:26.270Z,99496.83
2023-01-28T18:01:00.313Z,99492.78
2023-01-28T18:03:34.210Z,99496.13
2023-01-28T18:06:08.215Z,99485.59
2023-01-28T18:08:41.675Z,99485.52
2023-01-28T18:11:16.952Z,99488.97
2023-01-28T18:16:33.007Z,99485.96
2023-01-28T18:19:09.092Z,99478.81
2023-01-28T18:21:52.594Z,99477.91
2023-01-28T18:24:19.230Z,99467.87
2023-01-28T18:26:54.926Z,99462.13
2023-01-28T18:29:30.541Z,99465.75
2023-01-28T18:32:05.483Z,99469.27
2023-01-28T18:34:40.104Z,99462.20
2023-01-28T18:37:14.234Z,99458.58
2023-01-28T18:39:48.378Z,99460.27
2023-01-28T18:42:22.149Z,99458.13
2023-01-28T18:44:55.722Z,99459.53
2023-01-28T18:47:29.341Z,99450.19
2023-01-28T18:50:03.444Z,99445.16
2023-01-28T18:52:37.322Z,99443.66
2023-01-28T18:55:13.513Z,99434.48
2023-01-28T18:57:47.056Z,99449.85
2023-01-28T19:00:21.760Z,99440.39
2023-01-28T19:02:54.987Z,99445.59
2023-01-28T19:05:28.292Z,99433.86
2023-01-28T19:08:02.083Z,99426.42
2023-01-28T19:10:35.911Z,99432.53
2023-01-28T19:13:09.932Z,99430.76
2023-01-28T19:15:43.277Z,99430.05
2023-01-28T19:18:16.759Z,99435.63
2023-01-28T19:20:50.431Z,99438.70
2023-01-28T19:23:25.121Z,99439.41
2023-01-28T19:25:59.211Z,99430.31
2023-01-28T19:28:35.324Z,99431.63
2023-01-28T19:31:09.252Z,99433.59
2023-01-28T19:33:42.747Z,99429.34
2023-01-28T19:36:16.380Z,99439.67
2023-01-28T19:38:49.743Z,99427.48
2023-01-28T19:41:23.229Z,99433.59
2023-01-28T19:43:57.020Z,99425.91
2023-01-28T19:46:30.878Z,99420.78
2023-01-28T19:49:06.020Z,99411.69
2023-01-28T19:51:39.235Z,99411.84
2023-01-28T19:54:12.458Z,99406.87
2023-01-28T19:56:45.786Z,99410.42
2023-01-28T19:59:20.695Z,99401.05
2023-01-28T20:01:53.736Z,99401.05
2023-01-28T20:04:26.877Z,99407.78
2023-01-28T20:07:00.114Z,99403.17
2023-01-28T20:09:33.157Z,99406.20
2023-01-28T20:12:06.446Z,99399.77
2023-01-28T20:14:39.625Z,99401.08
2023-01-28T20:17:13.278Z,99395.52
2023-01-28T20:19:46.502Z,99390.85
2023-01-28T20:22:20.484Z,99394.12
2023-01-28T20:24:56.240Z,99392.51
2023-01-28T20:27:39.698Z,99388.65
2023-01-28T20:30:14.932Z,99383.77
2023-01-28T20:32:47.986Z,99389.80
2023-01-28T20:35:21.289Z,99385.63
2023-01-28T20:37:54.347Z,99378.92
2023-01-28T20:40:27.574Z,99377.31
2023-01-28T20:43:00.550Z,99373.17
2023-01-28T20:45:34.716Z,99368.92
2023-01-28T20:48:08.648Z,99368.21
2023-01-28T20:50:42.227Z,99366.80
2023-01-28T20:53:15.012Z,99369.70
2023-01-28T20:55:57.289Z,99363.95
2023-01-28T20:58:30.978Z,99360.45
2023-01-28T21:01:04.565Z,99357.77
2023-01-28T21:03:37.508Z,99365.45
2023-01-28T21:06:10.671Z,99358.05
2023-01-28T21:08:43.637Z,99358.16
2023-01-28T21:11:17.275Z,99365.33
2023-01-28T21:13:50.439Z,99354.64
2023-01-28T21:16:23.613Z,99352.70
2023-01-28T21:18:56.750Z,99343.88
2023-01-28T21:21:30.600Z,99342.11
2023-01-28T21:24:03.815Z,99336.83
2023-01-28T21:26:36.726Z,99339.38
2023-01-28T21:29:10.127Z,99331.70
2023-01-28T21:31:44.351Z,99327.38
2023-01-28T21:34:17.695Z,99326.39
2023-01-28T21:36:50.848Z,99322.87
2023-01-28T21:39:24.701Z,99325.44
2023-01-28T21:41:58.380Z,99329.57
2023-01-28T21:44:31.571Z,99322.35
2023-01-28T21:47:05.058Z,99317.86
2023-01-28T21:49:38.426Z,99315.30
2023-01-28T21:52:13.992Z,99319.43
2023-01-28T21:54:47.388Z,99315.55
2023-01-28T21:57:20.712Z,99312.45
2023-01-28T21:59:53.966Z,99319.27
2023-01-28T22:02:27.697Z,99316.78
2023-01-28T22:05:01.188Z,99319.27
2023-01-28T22:07:34.616Z,99311.39
2023-01-28T22:10:09.756Z,99306.27
2023-01-28T22:12:43.741Z,99310.44
2023-01-28T22:15:17.522Z,99303.55
2023-01-28T22:17:51.111Z,99310.44
2023-01-28T22:20:24.766Z,99307.17
2023-01-28T22:22:58.448Z,99306.98
2023-01-28T22:25:33.544Z,99300.99
2023-01-28T22:28:07.751Z,99300.79
2023-01-28T22:30:41.175Z,99296.21
2023-01-28T22:33:14.752Z,99296.05
2023-01-28T22:35:48.268Z,99294.19
2023-01-28T22:38:21.523Z,99286.44
2023-01-28T22:40:54.818Z,99275.38
2023-01-28T22:43:28.034Z,99279.55
2023-01-28T22:46:01.498Z,99280.33
2023-01-28T22:48:36.014Z,99272.58
2023-01-28T22:51:12.004Z,99275.05
2023-01-28T22:53:45.812Z,99274.15
2023-01-28T22:56:20.624Z,99264.70
2023-01-28T22:58:56.995Z,99262.06
2023-01-28T23:01:30.748Z,99258.63
2023-01-28T23:04:03.958Z,99263.75
2023-01-28T23:06:37.463Z,99261.89
2023-01-28T23:09:10.737Z,99248.91
2023-01-28T23:11:43.844Z,99243.80
2023-01-28T23:14:34.305Z,99233.41
2023-01-28T23:17:25.244Z,99249.81
2023-01-28T23:20:16.096Z,99244.50
2023-01-28T23:23:07.588Z,99235.67
2023-01-28T23:25:40.797Z,99226.69
2023-01-28T23:28:13.984Z,99232.33
2023-01-28T23:30:47.411Z,99226.52
2023-01-28T23:33:20.902Z,99225.62
2023-01-28T23:35:54.150Z,99225.62
2023-01-28T23:38:27.491Z,99223.77
2023-01-28T23:41:00.679Z,99226.31
2023-01-28T23:43:34.387Z,99220.16
2023-01-28T23:46:07.868Z,99220.87
2023-01-28T23:48:40.923Z,99207.02
2023-01-28T23:51:14.124Z,99203.39
2023-01-28T23:53:47.329Z,99203.11
2023-01-28T23:56:20.832Z,99208.22
2023-01-28T23:58:53.828Z,99207.34
